createdAt,value
2019-03-30T00:02:09.499Z,7.00
2019-03-30T00:04:35.802Z,7.10
2019-03-30T00:07:02.073Z,7.10
2019-03-30T00:09:28.468Z,7.10
2019-03-30T00:11:57.739Z,7.30
2019-03-30T00:14:22.892Z,7.40
2019-03-30T00:16:49.219Z,7.30
2019-03-30T00:19:15.603Z,7.10
2019-03-30T00:21:41.928Z,6.80
2019-03-30T00:24:08.202Z,6.80
2019-03-30T00:26:35.609Z,6.80
2019-03-30T00:29:01.887Z,6.70
2019-03-30T00:31:28.185Z,6.70
2019-03-30T00:33:54.426Z,6.70
2019-03-30T00:36:20.815Z,6.70
2019-03-30T00:38:49.176Z,6.70
2019-03-30T00:41:17.419Z,6.60
2019-03-30T00:43:43.713Z,6.50
2019-03-30T00:46:09.972Z,6.40
2019-03-30T00:48:36.290Z,6.30
2019-03-30T00:51:02.709Z,6.40
2019-03-30T00:53:29.070Z,6.60
2019-03-30T00:55:58.421Z,6.60
2019-03-30T00:58:25.752Z,6.40
2019-03-30T01:00:52.429Z,6.30
2019-03-30T01:03:18.716Z,6.20
2019-03-30T01:05:45.031Z,6.20
2019-03-30T01:08:11.399Z,6.20
2019-03-30T01:10:37.738Z,6.30
2019-03-30T01:13:04.035Z,6.30
2019-03-30T01:15:30.359Z,6.30
2019-03-30T01:17:56.659Z,6.30
2019-03-30T01:20:22.926Z,6.20
2019-03-30T01:22:49.191Z,6.20
2019-03-30T01:25:15.472Z,6.20
2019-03-30T01:27:41.765Z,6.20
2019-03-30T01:30:22.160Z,6.20
2019-03-30T01:32:37.004Z,6.20
2019-03-30T01:35:05.633Z,6.30
2019-03-30T01:37:31.974Z,6.50
2019-03-30T01:39:58.276Z,6.70
2019-03-30T01:42:27.715Z,6.60
2019-03-30T01:44:54.000Z,6.60
2019-03-30T01:47:22.694Z,6.50
2019-03-30T01:49:48.923Z,6.60
2019-03-30T01:52:15.396Z,6.60
2019-03-30T01:54:41.697Z,6.50
2019-03-30T01:57:07.951Z,6.40
2019-03-30T01:59:34.230Z,6.40
2019-03-30T02:02:00.591Z,6.50
2019-03-30T02:04:26.963Z,6.30
2019-03-30T02:06:53.233Z,6.40
2019-03-30T02:09:19.505Z,6.30
2019-03-30T02:11:45.770Z,6.20
2019-03-30T02:14:12.116Z,6.20
2019-03-30T02:16:38.387Z,6.10
2019-03-30T02:19:04.716Z,6.00
2019-03-30T02:21:30.967Z,6.00
2019-03-30T02:23:57.230Z,5.90
2019-03-30T02:26:23.560Z,5.80
2019-03-30T02:28:51.896Z,5.80
2019-03-30T02:31:19.247Z,6.00
2019-03-30T02:33:45.737Z,6.10
2019-03-30T02:36:15.053Z,6.20
2019-03-30T02:38:41.407Z,6.40
2019-03-30T02:41:08.698Z,6.40
2019-03-30T02:43:34.997Z,6.50
2019-03-30T02:46:02.669Z,6.60
2019-03-30T02:48:29.022Z,6.60
2019-03-30T02:50:55.386Z,6.20
2019-03-30T02:53:21.666Z,5.90
2019-03-30T02:55:48.044Z,5.90
2019-03-30T02:58:14.292Z,5.90
2019-03-30T03:00:46.543Z,5.90
2019-03-30T03:03:18.650Z,5.90
2019-03-30T03:05:44.936Z,5.70
2019-03-30T03:08:11.205Z,5.50
2019-03-30T03:10:37.470Z,5.40
2019-03-30T03:13:03.724Z,5.30
2019-03-30T03:15:30.000Z,5.30
2019-03-30T03:17:56.243Z,5.40
2019-03-30T03:20:22.619Z,5.50
2019-03-30T03:22:48.947Z,5.60
2019-03-30T03:25:15.223Z,5.60
2019-03-30T03:27:44.556Z,5.60
2019-03-30T03:30:11.101Z,5.40
2019-03-30T03:32:37.433Z,5.40
2019-03-30T03:35:03.674Z,5.40
2019-03-30T03:37:43.306Z,5.30
2019-03-30T03:39:57.998Z,5.30
2019-03-30T03:42:24.348Z,5.20
2019-03-30T03:44:53.757Z,5.30
2019-03-30T03:47:19.982Z,5.30
2019-03-30T03:49:46.273Z,5.40
2019-03-30T03:52:12.558Z,5.60
2019-03-30T03:54:38.808Z,5.70
2019-03-30T03:57:05.083Z,5.70
2019-03-30T04:02:17.559Z,5.80
2019-03-30T04:04:47.367Z,6.10
2019-03-30T04:07:12.483Z,5.80
2019-03-30T04:09:38.971Z,5.90
2019-03-30T04:12:06.741Z,5.80
2019-03-30T04:14:33.626Z,5.80
2019-03-30T04:16:59.963Z,5.70
2019-03-30T04:19:29.467Z,5.60
2019-03-30T04:21:56.021Z,5.60
2019-03-30T04:24:22.285Z,5.60
2019-03-30T04:26:48.654Z,5.60
2019-03-30T04:29:15.013Z,5.70
2019-03-30T04:31:41.312Z,5.80
2019-03-30T04:34:07.960Z,5.70
2019-03-30T04:36:40.207Z,5.70
2019-03-30T04:39:06.482Z,5.70
2019-03-30T04:41:32.722Z,5.50
2019-03-30T04:43:58.991Z,5.80
2019-03-30T04:46:28.291Z,5.90
2019-03-30T04:48:57.606Z,6.20
2019-03-30T04:51:23.901Z,6.10
2019-03-30T04:53:50.298Z,5.90
2019-03-30T04:56:18.782Z,5.60
2019-03-30T04:58:45.501Z,5.50
2019-03-30T05:01:14.867Z,5.50
2019-03-30T05:03:41.220Z,5.70
2019-03-30T05:06:07.546Z,5.90
2019-03-30T05:08:33.847Z,6.10
2019-03-30T05:11:00.213Z,6.20
2019-03-30T05:13:26.583Z,6.20
2019-03-30T05:15:52.922Z,6.30
2019-03-30T05:18:19.280Z,6.10
2019-03-30T05:20:45.622Z,6.00
2019-03-30T05:23:11.913Z,6.20
2019-03-30T05:25:38.216Z,6.20
2019-03-30T05:28:13.198Z,6.20
2019-03-30T05:30:39.519Z,6.20
2019-03-30T05:33:11.798Z,5.90
2019-03-30T05:35:38.123Z,6.10
2019-03-30T05:38:04.595Z,6.30
2019-03-30T05:40:36.691Z,6.30
2019-03-30T05:43:02.962Z,6.30
2019-03-30T05:45:29.326Z,6.20
2019-03-30T05:47:55.718Z,6.40
2019-03-30T05:50:21.991Z,6.60
2019-03-30T05:52:48.250Z,6.70
2019-03-30T05:55:14.618Z,7.00
2019-03-30T05:57:41.086Z,7.40
2019-03-30T06:00:08.145Z,7.70
2019-03-30T06:02:34.582Z,7.50
2019-03-30T06:05:03.353Z,7.40
2019-03-30T06:07:29.099Z,7.70
2019-03-30T06:09:55.543Z,8.00
2019-03-30T06:12:21.920Z,8.40
2019-03-30T06:14:48.293Z,8.80
2019-03-30T06:17:14.595Z,8.90
2019-03-30T06:19:40.905Z,8.80
2019-03-30T06:22:07.449Z,8.50
2019-03-30T06:24:33.857Z,8.70
2019-03-30T06:27:00.215Z,8.70
2019-03-30T06:29:29.810Z,8.50
2019-03-30T06:31:56.173Z,8.60
2019-03-30T06:34:22.464Z,8.80
2019-03-30T06:36:48.850Z,9.00
2019-03-30T06:39:15.165Z,9.20
2019-03-30T06:41:47.292Z,9.30
2019-03-30T06:44:13.575Z,9.40
2019-03-30T06:46:39.871Z,9.70
2019-03-30T06:49:06.301Z,10.00
2019-03-30T06:51:32.679Z,10.20
2019-03-30T06:53:58.944Z,10.40
2019-03-30T06:56:25.358Z,10.80
2019-03-30T06:58:54.663Z,11.20
2019-03-30T07:01:21.502Z,11.50
2019-03-30T07:03:47.922Z,11.70
2019-03-30T07:06:14.317Z,12.70
2019-03-30T07:08:41.105Z,13.80
2019-03-30T07:11:20.707Z,14.20
2019-03-30T07:13:36.899Z,14.40
2019-03-30T07:16:03.331Z,14.10
2019-03-30T07:18:29.653Z,14.00
2019-03-30T07:20:58.012Z,14.20
2019-03-30T07:23:30.136Z,14.50
2019-03-30T07:25:56.459Z,15.20
2019-03-30T07:28:22.699Z,15.50
2019-03-30T07:30:49.070Z,15.80
2019-03-30T07:33:15.438Z,17.80
2019-03-30T07:35:41.847Z,18.50
2019-03-30T07:38:08.162Z,20.00
2019-03-30T07:40:37.507Z,21.80
2019-03-30T07:43:03.878Z,21.70
2019-03-30T07:45:34.549Z,20.60
2019-03-30T07:48:06.788Z,20.80
2019-03-30T07:50:34.122Z,20.60
2019-03-30T07:53:00.544Z,21.80
2019-03-30T07:55:26.798Z,21.70
2019-03-30T07:57:56.317Z,22.40
2019-03-30T08:00:30.588Z,23.50
2019-03-30T08:02:53.122Z,24.80
2019-03-30T08:05:22.535Z,25.20
2019-03-30T08:07:52.138Z,26.10
2019-03-30T08:10:18.395Z,25.70
2019-03-30T08:12:44.759Z,26.50
2019-03-30T08:15:11.167Z,26.40
2019-03-30T08:17:43.703Z,26.80
2019-03-30T08:20:10.082Z,27.40
2019-03-30T08:22:36.989Z,28.40
2019-03-30T08:25:04.699Z,29.30
2019-03-30T08:27:31.018Z,28.90
2019-03-30T08:29:57.269Z,29.80
2019-03-30T08:32:23.605Z,30.10
2019-03-30T08:34:49.866Z,30.30
2019-03-30T08:37:17.226Z,29.90
2019-03-30T08:39:43.622Z,29.00
2019-03-30T08:42:13.118Z,28.70
2019-03-30T08:44:39.442Z,28.60
2019-03-30T08:47:05.855Z,28.60
2019-03-30T08:49:32.128Z,29.10
2019-03-30T08:51:58.434Z,27.90
2019-03-30T08:54:25.139Z,27.40
2019-03-30T08:56:51.491Z,27.70
2019-03-30T08:59:17.804Z,28.10
2019-03-30T09:01:44.207Z,28.30
2019-03-30T09:04:10.536Z,28.60
2019-03-30T09:06:36.819Z,29.10
2019-03-30T09:09:05.406Z,29.70
2019-03-30T09:11:31.840Z,30.20
2019-03-30T09:14:04.096Z,30.30
2019-03-30T09:16:32.473Z,30.40
2019-03-30T09:18:58.791Z,30.10
2019-03-30T09:21:25.113Z,29.30
2019-03-30T09:23:51.358Z,28.70
2019-03-30T09:26:17.632Z,29.30
2019-03-30T09:28:50.363Z,29.80
2019-03-30T09:31:16.662Z,30.00
2019-03-30T09:33:43.063Z,30.20
2019-03-30T09:36:15.213Z,30.00
2019-03-30T09:38:41.524Z,29.40
2019-03-30T09:41:08.376Z,29.20
2019-03-30T09:43:37.386Z,29.50
2019-03-30T09:46:03.153Z,28.70
2019-03-30T09:48:29.597Z,28.10
2019-03-30T09:50:55.880Z,27.40
2019-03-30T09:53:22.263Z,26.60
2019-03-30T09:55:48.534Z,26.10
2019-03-30T09:58:14.959Z,25.70
2019-03-30T10:00:44.366Z,25.30
2019-03-30T10:03:10.685Z,24.60
2019-03-30T10:05:37.074Z,23.60
2019-03-30T10:08:03.334Z,23.30
2019-03-30T10:10:29.583Z,22.40
2019-03-30T10:12:55.953Z,21.90
2019-03-30T10:15:22.565Z,21.60
2019-03-30T10:17:49.831Z,21.60
2019-03-30T10:20:17.534Z,21.30
2019-03-30T10:22:43.872Z,21.10
2019-03-30T10:25:10.277Z,21.10
2019-03-30T10:27:36.625Z,20.70
2019-03-30T10:30:07.254Z,20.60
2019-03-30T10:32:36.627Z,20.80
2019-03-30T10:35:06.109Z,21.10
2019-03-30T10:37:32.434Z,20.50
2019-03-30T10:39:58.851Z,20.80
2019-03-30T10:42:26.104Z,20.60
2019-03-30T10:44:58.483Z,20.60
2019-03-30T10:47:24.773Z,20.70
2019-03-30T10:49:51.445Z,20.80
2019-03-30T10:52:18.802Z,20.70
2019-03-30T10:54:52.552Z,20.30
2019-03-30T10:57:13.271Z,20.60
2019-03-30T10:59:45.663Z,21.00
2019-03-30T11:02:12.050Z,20.80
2019-03-30T11:04:38.410Z,20.90
2019-03-30T11:07:04.695Z,21.00
2019-03-30T11:09:33.966Z,20.80
2019-03-30T11:12:00.263Z,20.80
2019-03-30T11:14:26.538Z,20.60
2019-03-30T11:16:52.847Z,20.60
2019-03-30T11:19:19.182Z,20.30
2019-03-30T11:21:45.432Z,20.70
2019-03-30T11:24:11.759Z,20.50
2019-03-30T11:26:38.248Z,20.60
2019-03-30T11:29:04.523Z,20.70
2019-03-30T11:31:30.858Z,20.50
2019-03-30T11:33:57.157Z,20.60
2019-03-30T11:36:26.783Z,20.60
2019-03-30T11:38:53.097Z,20.30
2019-03-30T11:41:19.468Z,19.70
2019-03-30T11:43:45.819Z,20.20
2019-03-30T11:46:12.206Z,20.60
2019-03-30T11:48:38.491Z,21.10
2019-03-30T11:51:11.369Z,21.30
2019-03-30T11:53:37.687Z,21.30
2019-03-30T11:56:03.958Z,21.10
2019-03-30T11:58:30.317Z,20.80
2019-03-30T12:00:56.657Z,20.80
2019-03-30T12:03:22.918Z,21.20
2019-03-30T12:05:49.216Z,21.70
2019-03-30T12:08:15.599Z,21.60
2019-03-30T12:10:42.390Z,22.10
2019-03-30T12:13:08.901Z,22.30
2019-03-30T12:15:35.151Z,22.40
2019-03-30T12:18:01.488Z,21.90
2019-03-30T12:20:27.734Z,22.00
2019-03-30T12:22:59.960Z,22.10
2019-03-30T12:25:35.316Z,21.80
2019-03-30T12:27:57.465Z,22.10
2019-03-30T12:30:23.834Z,22.40
2019-03-30T12:32:50.124Z,22.40
2019-03-30T12:35:16.698Z,22.40
2019-03-30T12:37:43.074Z,22.10
2019-03-30T12:40:09.352Z,22.20
2019-03-30T12:42:35.589Z,22.20
2019-03-30T12:45:03.796Z,22.20
2019-03-30T12:47:35.919Z,22.10
2019-03-30T12:50:08.850Z,21.80
2019-03-30T12:53:04.228Z,21.90
2019-03-30T12:55:30.575Z,22.00
2019-03-30T12:58:16.964Z,21.80
2019-03-30T13:00:50.242Z,21.90
2019-03-30T13:03:16.688Z,22.00
2019-03-30T13:05:43.164Z,21.80
2019-03-30T13:08:09.842Z,21.80
2019-03-30T13:10:36.231Z,21.70
2019-03-30T13:13:05.581Z,20.90
2019-03-30T13:15:32.004Z,21.20
2019-03-30T13:17:58.291Z,21.40
2019-03-30T13:20:24.576Z,21.50
2019-03-30T13:22:50.909Z,21.50
2019-03-30T13:25:30.295Z,21.60
2019-03-30T13:27:56.606Z,21.60
2019-03-30T13:30:22.979Z,21.40
2019-03-30T13:32:55.304Z,21.60
2019-03-30T13:35:21.555Z,21.60
2019-03-30T13:37:47.906Z,21.10
2019-03-30T13:40:14.184Z,20.40
2019-03-30T13:42:40.560Z,20.10
2019-03-30T13:45:12.774Z,20.30
2019-03-30T13:47:39.069Z,20.60
2019-03-30T13:50:05.460Z,20.90
2019-03-30T13:52:31.738Z,21.00
2019-03-30T13:54:58.022Z,21.00
2019-03-30T13:57:24.619Z,20.90
2019-03-30T13:59:50.896Z,21.00
2019-03-30T14:02:17.257Z,21.20
2019-03-30T14:04:43.547Z,21.30
2019-03-30T14:07:09.804Z,20.60
2019-03-30T14:09:36.090Z,20.80
2019-03-30T14:12:17.461Z,21.00
2019-03-30T14:14:43.606Z,21.10
2019-03-30T14:17:09.878Z,21.10
2019-03-30T14:19:36.134Z,21.10
2019-03-30T14:22:02.469Z,21.20
2019-03-30T14:24:28.828Z,21.30
2019-03-30T14:26:55.100Z,21.40
2019-03-30T14:29:23.446Z,21.30
2019-03-30T14:31:49.863Z,21.30
2019-03-30T14:34:16.606Z,21.30
2019-03-30T14:36:42.866Z,21.30
2019-03-30T14:39:09.306Z,21.30
2019-03-30T14:41:35.652Z,21.30
2019-03-30T14:44:01.923Z,21.20
2019-03-30T14:46:30.208Z,21.20
2019-03-30T14:48:56.770Z,21.10
2019-03-30T14:51:23.120Z,21.10
2019-03-30T14:53:49.369Z,21.00
2019-03-30T14:56:21.475Z,20.80
2019-03-30T14:58:47.779Z,20.90
2019-03-30T15:01:14.066Z,21.00
2019-03-30T15:03:43.524Z,21.00
2019-03-30T15:06:09.857Z,21.10
2019-03-30T15:08:36.300Z,21.10
2019-03-30T15:11:02.617Z,21.10
2019-03-30T15:13:28.871Z,21.00
2019-03-30T15:15:55.118Z,21.10
2019-03-30T15:18:21.451Z,21.00
2019-03-30T15:20:47.806Z,20.90
2019-03-30T15:23:14.110Z,20.90
2019-03-30T15:25:40.478Z,20.90
2019-03-30T15:28:09.847Z,20.90
2019-03-30T15:30:42.227Z,20.90
2019-03-30T15:33:15.256Z,20.90
2019-03-30T15:35:41.639Z,21.00
2019-03-30T15:38:07.957Z,20.90
2019-03-30T15:40:34.529Z,20.90
2019-03-30T15:43:05.486Z,20.70
2019-03-30T15:45:31.918Z,20.60
2019-03-30T15:47:58.267Z,20.60
2019-03-30T15:50:24.552Z,20.60
2019-03-30T15:52:51.978Z,20.50
2019-03-30T15:55:18.287Z,20.50
2019-03-30T15:57:44.666Z,20.60
2019-03-30T16:00:12.615Z,20.60
2019-03-30T16:02:39.892Z,20.60
2019-03-30T16:05:06.625Z,20.60
2019-03-30T16:07:32.965Z,20.50
2019-03-30T16:10:00.609Z,20.40
2019-03-30T16:12:27.041Z,20.40
2019-03-30T16:14:53.354Z,20.40
2019-03-30T16:17:19.638Z,20.40
2019-03-30T16:19:46.621Z,20.40
2019-03-30T16:22:13.526Z,20.20
2019-03-30T16:24:39.842Z,20.00
2019-03-30T16:27:06.104Z,20.00
2019-03-30T16:29:38.784Z,20.00
2019-03-30T16:32:05.114Z,20.00
2019-03-30T16:34:31.394Z,20.00
2019-03-30T16:36:57.715Z,19.90
2019-03-30T16:39:24.048Z,19.90
2019-03-30T16:41:50.352Z,19.90
2019-03-30T16:44:16.622Z,19.80
2019-03-30T16:46:44.958Z,19.80
2019-03-30T16:49:11.235Z,19.70
2019-03-30T16:51:37.570Z,19.60
2019-03-30T16:54:04.067Z,19.40
2019-03-30T16:56:30.319Z,19.30
2019-03-30T16:59:05.763Z,19.20
2019-03-30T17:01:33.054Z,19.00
2019-03-30T17:03:59.407Z,19.00
2019-03-30T17:06:25.667Z,18.90
2019-03-30T17:08:51.917Z,18.80
2019-03-30T17:11:18.185Z,18.90
2019-03-30T17:13:44.582Z,18.90
2019-03-30T17:16:10.863Z,18.80
2019-03-30T17:18:37.206Z,18.80
2019-03-30T17:21:03.595Z,18.70
2019-03-30T17:23:30.000Z,18.70
2019-03-30T17:25:56.304Z,18.50
2019-03-30T17:28:23.785Z,18.40
2019-03-30T17:30:51.089Z,18.40
2019-03-30T17:33:17.370Z,18.20
2019-03-30T17:35:44.774Z,18.20
2019-03-30T17:38:11.066Z,18.10
2019-03-30T17:40:37.322Z,18.00
2019-03-30T17:43:10.023Z,18.00
2019-03-30T17:45:36.318Z,17.90
2019-03-30T17:48:02.616Z,17.80
2019-03-30T17:50:28.944Z,17.50
2019-03-30T17:52:55.268Z,17.30
2019-03-30T17:55:33.163Z,17.20
2019-03-30T17:57:50.616Z,17.00
2019-03-30T18:00:18.808Z,16.60
2019-03-30T18:02:45.548Z,16.40
2019-03-30T18:05:12.053Z,16.40
2019-03-30T18:07:38.336Z,16.30
2019-03-30T18:10:05.480Z,16.30
2019-03-30T18:12:32.016Z,16.20
2019-03-30T18:14:58.316Z,15.90
2019-03-30T18:17:24.639Z,15.50
2019-03-30T18:19:50.960Z,15.30
2019-03-30T18:22:20.271Z,15.20
2019-03-30T18:24:46.644Z,15.00
2019-03-30T18:27:13.038Z,14.80
2019-03-30T18:29:39.309Z,14.90
2019-03-30T18:32:05.662Z,14.80
2019-03-30T18:34:34.987Z,14.60
2019-03-30T18:37:07.468Z,14.80
2019-03-30T18:39:34.147Z,14.90
2019-03-30T18:42:03.448Z,14.80
2019-03-30T18:44:29.727Z,14.90
2019-03-30T18:47:02.712Z,14.80
2019-03-30T18:49:29.087Z,14.70
2019-03-30T18:51:55.395Z,14.60
2019-03-30T18:54:21.662Z,14.50
2019-03-30T18:56:47.913Z,14.40
2019-03-30T18:59:14.222Z,14.40
2019-03-30T19:01:42.516Z,14.20
2019-03-30T19:04:09.820Z,14.00
2019-03-30T19:06:36.092Z,14.00
2019-03-30T19:09:04.646Z,14.00
2019-03-30T19:11:31.067Z,14.00
2019-03-30T19:13:57.433Z,13.80
2019-03-30T19:16:23.775Z,13.70
2019-03-30T19:18:50.093Z,13.70
2019-03-30T19:21:16.458Z,13.50
2019-03-30T19:23:42.686Z,13.40
2019-03-30T19:26:08.963Z,13.20
2019-03-30T19:28:36.670Z,13.00
2019-03-30T19:31:06.470Z,13.00
2019-03-30T19:33:32.751Z,12.90
2019-03-30T19:35:59.034Z,12.60
2019-03-30T19:38:25.294Z,12.60
2019-03-30T19:40:51.626Z,12.60
2019-03-30T19:43:24.106Z,12.60
2019-03-30T19:45:50.431Z,12.60
2019-03-30T19:48:20.083Z,12.70
2019-03-30T19:50:46.365Z,12.60
2019-03-30T19:53:12.637Z,12.50
2019-03-30T19:55:44.971Z,12.40
2019-03-30T19:58:17.370Z,12.40
2019-03-30T20:00:44.703Z,12.30
2019-03-30T20:03:11.051Z,12.10
2019-03-30T20:05:37.358Z,12.10
2019-03-30T20:08:12.062Z,11.80
2019-03-30T20:10:34.735Z,11.40
2019-03-30T20:13:01.033Z,11.60
2019-03-30T20:15:27.263Z,11.40
2019-03-30T20:17:53.627Z,11.40
2019-03-30T20:20:20.147Z,11.30
2019-03-30T20:22:46.458Z,11.20
2019-03-30T20:25:12.712Z,11.00
2019-03-30T20:27:39.072Z,11.10
2019-03-30T20:30:06.749Z,11.30
2019-03-30T20:32:43.480Z,11.40
2019-03-30T20:35:15.122Z,11.50
2019-03-30T20:37:41.544Z,11.40
2019-03-30T20:40:10.018Z,11.50
2019-03-30T20:42:36.293Z,11.60
2019-03-30T20:45:05.780Z,11.60
2019-03-30T20:47:35.141Z,11.50
2019-03-30T20:50:01.428Z,11.50
2019-03-30T20:52:28.534Z,11.40
2019-03-30T20:54:54.932Z,11.20
2019-03-30T20:57:21.248Z,11.00
2019-03-30T20:59:56.553Z,10.90
2019-03-30T21:02:22.851Z,10.60
2019-03-30T21:04:49.192Z,10.50
2019-03-30T21:07:18.557Z,10.70
2019-03-30T21:09:44.839Z,10.70
2019-03-30T21:12:11.111Z,10.90
2019-03-30T21:14:37.665Z,10.90
2019-03-30T21:17:03.944Z,10.90
2019-03-30T21:19:30.278Z,10.90
2019-03-30T21:21:56.553Z,10.80
2019-03-30T21:24:22.824Z,10.60
2019-03-30T21:26:49.175Z,10.50
2019-03-30T21:29:15.546Z,10.30
2019-03-30T21:31:41.858Z,10.30
2019-03-30T21:34:08.123Z,10.40
2019-03-30T21:36:34.452Z,10.50
2019-03-30T21:39:00.758Z,10.50
2019-03-30T21:41:33.174Z,10.50
2019-03-30T21:43:59.483Z,10.50
2019-03-30T21:46:25.774Z,10.50
2019-03-30T21:48:52.143Z,10.50
2019-03-30T21:51:18.486Z,10.60
2019-03-30T21:53:44.776Z,10.40
2019-03-30T21:56:14.165Z,10.40
2019-03-30T21:58:40.433Z,10.30
2019-03-30T22:01:06.689Z,10.40
2019-03-30T22:03:32.953Z,10.30
2019-03-30T22:06:05.452Z,10.30
2019-03-30T22:08:31.829Z,10.30
2019-03-30T22:10:58.087Z,10.30
2019-03-30T22:13:24.375Z,10.30
2019-03-30T22:15:50.659Z,10.20
2019-03-30T22:18:16.944Z,10.30
2019-03-30T22:20:43.459Z,10.10
2019-03-30T22:23:13.072Z,10.00
2019-03-30T22:25:39.419Z,9.90
2019-03-30T22:28:05.781Z,9.90
2019-03-30T22:30:36.744Z,9.90
2019-03-30T22:33:04.807Z,10.00
2019-03-30T22:35:31.401Z,9.90
2019-03-30T22:37:57.660Z,9.80
2019-03-30T22:40:24.044Z,9.70
2019-03-30T22:42:50.521Z,9.70
2019-03-30T22:45:16.994Z,9.80
2019-03-30T22:47:43.341Z,9.80
2019-03-30T22:50:09.638Z,10.00
2019-03-30T22:52:35.901Z,10.00
2019-03-30T22:55:04.220Z,10.00
2019-03-30T22:57:30.509Z,9.40
2019-03-30T23:00:00.042Z,8.80
2019-03-30T23:02:26.418Z,8.60
2019-03-30T23:04:56.062Z,8.50
2019-03-30T23:07:22.340Z,8.80
2019-03-30T23:09:48.617Z,8.90
2019-03-30T23:12:15.156Z,9.00
2019-03-30T23:14:41.480Z,9.10
2019-03-30T23:17:07.812Z,9.10
2019-03-30T23:19:34.258Z,9.20
2019-03-30T23:22:00.524Z,9.10
2019-03-30T23:24:26.822Z,9.00
2019-03-30T23:26:58.858Z,8.90
2019-03-30T23:29:25.285Z,8.80
2019-03-30T23:31:51.574Z,8.70
2019-03-30T23:34:17.854Z,8.60
2019-03-30T23:36:44.116Z,8.70
2019-03-30T23:39:13.490Z,8.80
2019-03-30T23:41:39.761Z,8.70
2019-03-30T23:44:06.132Z,8.70
2019-03-30T23:46:33.414Z,8.60
2019-03-30T23:49:05.455Z,8.40
2019-03-30T23:51:31.841Z,8.30
2019-03-30T23:53:58.241Z,8.30
2019-03-30T23:56:27.698Z,8.50
2019-03-30T23:58:56.021Z,8.60
